createdAt,value
2023-06-10T00:00:08.818Z,99547.75
2023-06-10T00:01:18.469Z,99543.30
2023-06-10T00:02:20.702Z,99541.62
2023-06-10T00:03:24.687Z,99542.47
2023-06-10T00:04:28.123Z,99536.33
2023-06-10T00:05:32.145Z,99547.88
2023-06-10T00:06:36.773Z,99539.13
2023-06-10T00:07:39.711Z,99543.59
2023-06-10T00:08:42.788Z,99543.59
2023-06-10T00:09:46.846Z,99541.06
2023-06-10T00:10:49.291Z,99542.88
2023-06-10T00:11:51.664Z,99539.27
2023-06-10T00:12:53.942Z,99539.95
2023-06-10T00:13:57.316Z,99537.45
2023-06-10T00:14:59.864Z,99541.91
2023-06-10T00:16:04.414Z,99538.56
2023-06-10T00:17:09.792Z,99540.80
2023-06-10T00:18:12.298Z,99543.44
2023-06-10T00:19:16.016Z,99531.61
2023-06-10T00:20:20.141Z,99538.01
2023-06-10T00:21:24.786Z,99537.30
2023-06-10T00:22:28.821Z,99531.34
2023-06-10T00:23:32.367Z,99538.56
2023-06-10T00:24:35.901Z,99538.82
2023-06-10T00:25:39.248Z,99535.50
2023-06-10T00:26:42.656Z,99534.09
2023-06-10T00:27:46.333Z,99537.84
2023-06-10T00:28:49.440Z,99535.49
2023-06-10T00:29:52.192Z,99534.64
2023-06-10T00:30:55.130Z,99535.75
2023-06-10T00:31:58.083Z,99541.17
2023-06-10T00:33:00.654Z,99531.16
2023-06-10T00:34:03.184Z,99531.67
2023-06-10T00:35:08.761Z,99539.59
2023-06-10T00:36:12.190Z,99531.67
2023-06-10T00:37:14.513Z,99533.50
2023-06-10T00:38:16.785Z,99533.50
2023-06-10T00:39:19.070Z,99529.03
2023-06-10T00:40:21.948Z,99532.67
2023-06-10T00:41:24.883Z,99533.64
2023-06-10T00:42:27.215Z,99537.95
2023-06-10T00:43:30.333Z,99537.95
2023-06-10T00:44:32.704Z,99529.33
2023-06-10T00:45:35.673Z,99534.86
2023-06-10T00:46:38.951Z,99534.04
2023-06-10T00:47:41.976Z,99529.87
2023-06-10T00:48:45.650Z,99530.69
2023-06-10T00:49:50.067Z,99532.66
2023-06-10T00:50:53.194Z,99543.47
2023-06-10T00:51:55.743Z,99530.63
2023-06-10T00:52:58.928Z,99535.31
2023-06-10T00:54:02.601Z,99531.36
2023-06-10T00:55:12.623Z,99533.84
2023-06-10T00:56:17.635Z,99531.59
2023-06-10T00:57:20.561Z,99534.19
2023-06-10T00:58:26.262Z,99536.36
2023-06-10T00:59:31.013Z,99530.79
2023-06-10T01:00:33.442Z,99536.78
2023-06-10T01:01:38.689Z,99538.27
2023-06-10T01:02:41.935Z,99534.77
2023-06-10T01:03:45.910Z,99540.77
2023-06-10T01:04:50.890Z,99543.64
2023-06-10T01:05:58.836Z,99536.72
2023-06-10T01:07:09.923Z,99537.11
2023-06-10T01:08:23.556Z,99531.12
2023-06-10T01:09:31.023Z,99532.93
2023-06-10T01:10:46.307Z,99534.14
2023-06-10T01:11:52.215Z,99541.60
2023-06-10T01:13:02.971Z,99540.98
2023-06-10T01:14:08.110Z,99541.60
2023-06-10T01:15:11.766Z,99534.42
2023-06-10T01:16:15.530Z,99534.42
2023-06-10T01:17:18.700Z,99540.98
2023-06-10T01:18:22.150Z,99541.81
2023-06-10T01:19:24.783Z,99539.17
2023-06-10T01:20:28.027Z,99541.23
2023-06-10T01:21:33.407Z,99544.28
2023-06-10T01:22:37.005Z,99536.41
2023-06-10T01:23:39.275Z,99537.84
2023-06-10T01:24:43.986Z,99538.35
2023-06-10T01:25:56.981Z,99541.47
2023-06-10T01:27:02.984Z,99540.78
2023-06-10T01:28:27.298Z,99538.59
2023-06-10T01:29:38.032Z,99537.50
2023-06-10T01:30:47.853Z,99542.19
2023-06-10T01:32:11.342Z,99542.45
2023-06-10T01:33:18.112Z,99542.11
2023-06-10T01:34:24.891Z,99550.14
2023-06-10T01:35:29.411Z,99543.44
2023-06-10T01:36:34.600Z,99544.02
2023-06-10T01:37:40.138Z,99543.78
2023-06-10T01:38:47.918Z,99543.92
2023-06-10T01:39:51.634Z,99545.59
2023-06-10T01:40:57.102Z,99546.80
2023-06-10T01:42:01.419Z,99545.83
2023-06-10T01:43:04.008Z,99542.84
2023-06-10T01:44:06.380Z,99538.75
2023-06-10T01:45:09.667Z,99547.14
2023-06-10T01:46:13.087Z,99546.28
2023-06-10T01:47:15.571Z,99546.87
2023-06-10T01:48:17.800Z,99540.19
2023-06-10T01:49:20.289Z,99545.83
2023-06-10T01:50:23.524Z,99540.70
2023-06-10T01:51:25.818Z,99541.97
2023-06-10T01:52:29.081Z,99540.78
2023-06-10T01:53:31.474Z,99531.64
2023-06-10T01:54:35.334Z,99531.41
2023-06-10T01:55:37.940Z,99536.41
2023-06-10T01:56:40.347Z,99535.31
2023-06-10T01:57:42.726Z,99533.16
2023-06-10T01:58:45.587Z,99534.69
2023-06-10T01:59:47.914Z,99535.14
2023-06-10T02:00:51.381Z,99529.63
2023-06-10T02:01:53.693Z,99540.17
2023-06-10T02:02:56.108Z,99532.95
2023-06-10T02:03:58.566Z,99538.49
2023-06-10T02:05:01.500Z,99537.77
2023-06-10T02:06:04.406Z,99540.66
2023-06-10T02:07:06.580Z,99537.33
2023-06-10T02:08:09.022Z,99541.67
2023-06-10T02:09:11.366Z,99545.54
2023-06-10T02:10:15.276Z,99543.86
2023-06-10T02:11:17.614Z,99539.55
2023-06-10T02:12:20.077Z,99544.09
2023-06-10T02:13:22.484Z,99539.41
2023-06-10T02:14:26.580Z,99545.54
2023-06-10T02:15:28.748Z,99546.36
2023-06-10T02:16:32.827Z,99546.87
2023-06-10T02:17:35.212Z,99542.45
2023-06-10T02:18:37.547Z,99543.55
2023-06-10T02:19:41.802Z,99538.01
2023-06-10T02:20:44.633Z,99539.69
2023-06-10T02:21:47.019Z,99545.54
2023-06-10T02:22:49.321Z,99535.72
2023-06-10T02:23:51.655Z,99543.35
2023-06-10T02:24:53.856Z,99539.76
2023-06-10T02:25:56.126Z,99543.11
2023-06-10T02:27:00.165Z,99538.29
2023-06-10T02:28:03.988Z,99533.02
2023-06-10T02:29:06.416Z,99533.02
2023-06-10T02:30:10.837Z,99549.86
2023-06-10T02:31:13.902Z,99549.99
2023-06-10T02:32:17.177Z,99552.63
2023-06-10T02:33:20.794Z,99554.99
2023-06-10T02:34:23.102Z,99555.98
2023-06-10T02:35:25.471Z,99552.36
2023-06-10T02:36:28.413Z,99546.88
2023-06-10T02:37:31.245Z,99552.97
2023-06-10T02:38:33.888Z,99556.45
2023-06-10T02:39:37.610Z,99552.25
2023-06-10T02:40:42.843Z,99552.25
2023-06-10T02:41:45.889Z,99560.50
2023-06-10T02:42:49.729Z,99554.98
2023-06-10T02:43:52.699Z,99561.93
2023-06-10T02:44:55.319Z,99561.93
2023-06-10T02:45:59.545Z,99554.98
2023-06-10T02:47:01.960Z,99556.66
2023-06-10T02:48:05.336Z,99559.81
2023-06-10T02:49:08.115Z,99561.59
2023-06-10T02:50:12.087Z,99563.61
2023-06-10T02:51:16.762Z,99563.41
2023-06-10T02:52:21.032Z,99567.00
2023-06-10T02:53:23.542Z,99562.52
2023-06-10T02:54:27.844Z,99567.78
2023-06-10T02:55:31.182Z,99565.77
2023-06-10T02:56:36.923Z,99571.22
2023-06-10T02:57:40.350Z,99576.22
2023-06-10T02:58:43.334Z,99574.58
2023-06-10T02:59:46.267Z,99576.72
2023-06-10T03:00:49.465Z,99575.31
2023-06-10T03:01:51.555Z,99579.48
2023-06-10T03:02:56.088Z,99573.13
2023-06-10T03:04:01.433Z,99580.90
2023-06-10T03:05:08.589Z,99575.05
2023-06-10T03:06:11.454Z,99576.63
2023-06-10T03:07:14.405Z,99582.26
2023-06-10T03:08:16.953Z,99575.63
2023-06-10T03:09:19.766Z,99575.53
2023-06-10T03:10:23.854Z,99578.08
2023-06-10T03:11:27.238Z,99579.36
2023-06-10T03:12:29.381Z,99581.48
2023-06-10T03:13:32.967Z,99573.80
2023-06-10T03:14:35.779Z,99582.93
2023-06-10T03:15:40.410Z,99580.75
2023-06-10T03:16:43.976Z,99586.76
2023-06-10T03:17:46.880Z,99585.80
2023-06-10T03:18:50.179Z,99580.75
2023-06-10T03:19:52.558Z,99585.27
2023-06-10T03:20:58.094Z,99582.27
2023-06-10T03:22:12.455Z,99579.56
2023-06-10T03:23:19.403Z,99585.18
2023-06-10T03:24:22.420Z,99583.02
2023-06-10T03:25:27.170Z,99574.44
2023-06-10T03:26:30.082Z,99583.53
2023-06-10T03:27:33.367Z,99580.48
2023-06-10T03:28:37.205Z,99580.83
2023-06-10T03:29:40.369Z,99576.13
2023-06-10T03:30:43.179Z,99580.31
2023-06-10T03:31:45.997Z,99583.39
2023-06-10T03:32:49.771Z,99579.55
2023-06-10T03:33:53.433Z,99579.02
2023-06-10T03:34:57.752Z,99572.08
2023-06-10T03:36:00.626Z,99578.69
2023-06-10T03:37:04.752Z,99578.69
2023-06-10T03:38:08.210Z,99578.17
2023-06-10T03:39:12.485Z,99579.98
2023-06-10T03:40:15.380Z,99584.88
2023-06-10T03:41:19.630Z,99581.86
2023-06-10T03:42:22.346Z,99583.78
2023-06-10T03:43:25.983Z,99585.17
2023-06-10T03:44:28.542Z,99582.40
2023-06-10T03:45:32.492Z,99584.93
2023-06-10T03:46:35.020Z,99577.98
2023-06-10T03:47:39.850Z,99588.53
2023-06-10T03:48:45.044Z,99584.93
2023-06-10T03:49:47.744Z,99582.67
2023-06-10T03:50:53.683Z,99583.50
2023-06-10T03:51:58.042Z,99583.50
2023-06-10T03:53:01.628Z,99580.75
2023-06-10T03:54:04.173Z,99583.25
2023-06-10T03:55:08.790Z,99578.55
2023-06-10T03:56:11.753Z,99584.13
2023-06-10T03:57:15.628Z,99580.34
2023-06-10T03:58:18.843Z,99584.41
2023-06-10T03:59:22.715Z,99579.56
2023-06-10T04:00:26.597Z,99579.03
2023-06-10T04:01:29.536Z,99575.86
2023-06-10T04:02:33.311Z,99579.47
2023-06-10T04:03:35.735Z,99579.47
2023-06-10T04:04:38.212Z,99579.92
2023-06-10T04:05:40.913Z,99581.89
2023-06-10T04:06:45.447Z,99573.33
2023-06-10T04:07:48.959Z,99570.58
2023-06-10T04:08:51.239Z,99577.10
2023-06-10T04:09:53.809Z,99574.91
2023-06-10T04:10:56.835Z,99574.63
2023-06-10T04:11:59.806Z,99577.13
2023-06-10T04:13:03.842Z,99578.80
2023-06-10T04:14:09.244Z,99578.27
2023-06-10T04:15:13.177Z,99576.47
2023-06-10T04:16:16.526Z,99577.18
2023-06-10T04:17:19.049Z,99578.56
2023-06-10T04:18:25.043Z,99578.84
2023-06-10T04:19:30.786Z,99575.13
2023-06-10T04:20:33.882Z,99580.12
2023-06-10T04:21:37.024Z,99578.18
2023-06-10T04:22:39.227Z,99573.45
2023-06-10T04:23:41.618Z,99574.13
2023-06-10T04:24:44.635Z,99571.63
2023-06-10T04:25:47.998Z,99574.69
2023-06-10T04:26:50.767Z,99575.80
2023-06-10T04:27:54.141Z,99572.48
2023-06-10T04:28:56.648Z,99571.23
2023-06-10T04:30:00.382Z,99574.42
2023-06-10T04:31:04.563Z,99574.99
2023-06-10T04:32:07.993Z,99575.81
2023-06-10T04:33:10.930Z,99573.17
2023-06-10T04:34:15.216Z,99573.61
2023-06-10T04:35:17.657Z,99568.33
2023-06-10T04:36:21.168Z,99573.06
2023-06-10T04:37:23.384Z,99574.30
2023-06-10T04:38:25.830Z,99577.38
2023-06-10T04:39:28.099Z,99576.13
2023-06-10T04:40:31.727Z,99574.03
2023-06-10T04:41:34.320Z,99574.74
2023-06-10T04:42:37.588Z,99574.74
2023-06-10T04:43:39.817Z,99574.74
2023-06-10T04:44:42.119Z,99573.74
2023-06-10T04:45:45.725Z,99574.19
2023-06-10T04:46:48.687Z,99568.48
2023-06-10T04:47:51.037Z,99568.34
2023-06-10T04:48:54.958Z,99574.45
2023-06-10T04:49:57.394Z,99573.80
2023-06-10T04:51:00.776Z,99565.30
2023-06-10T04:52:05.347Z,99573.49
2023-06-10T04:53:09.656Z,99561.13
2023-06-10T04:54:12.871Z,99576.42
2023-06-10T04:55:15.661Z,99566.52
2023-06-10T04:56:19.318Z,99569.86
2023-06-10T04:57:22.312Z,99571.94
2023-06-10T04:58:24.875Z,99575.84
2023-06-10T04:59:27.251Z,99582.50
2023-06-10T05:00:29.780Z,99572.47
2023-06-10T05:01:32.056Z,99579.16
2023-06-10T05:02:36.533Z,99578.03
2023-06-10T05:03:39.394Z,99573.96
2023-06-10T05:04:43.092Z,99572.72
2023-06-10T05:05:49.025Z,99574.08
2023-06-10T05:06:51.365Z,99568.12
2023-06-10T05:07:53.757Z,99573.11
2023-06-10T05:08:56.117Z,99570.19
2023-06-10T05:09:58.308Z,99576.84
2023-06-10T05:11:01.328Z,99568.36
2023-06-10T05:12:05.057Z,99566.80
2023-06-10T05:13:07.318Z,99566.20
2023-06-10T05:14:09.615Z,99566.75
2023-06-10T05:15:12.530Z,99570.64
2023-06-10T05:16:15.764Z,99571.28
2023-06-10T05:17:18.052Z,99571.28
2023-06-10T05:18:21.482Z,99568.86
2023-06-10T05:19:24.097Z,99570.91
2023-06-10T05:20:27.147Z,99573.98
2023-06-10T05:21:29.903Z,99571.02
2023-06-10T05:22:33.298Z,99575.71
2023-06-10T05:23:35.697Z,99572.09
2023-06-10T05:24:38.553Z,99570.12
2023-06-10T05:25:42.296Z,99576.41
2023-06-10T05:26:44.923Z,99578.08
2023-06-10T05:27:47.113Z,99574.13
2023-06-10T05:28:49.474Z,99576.56
2023-06-10T05:29:54.206Z,99573.22
2023-06-10T05:30:57.110Z,99574.04
2023-06-10T05:32:01.494Z,99571.92
2023-06-10T05:33:04.967Z,99569.81
2023-06-10T05:34:07.438Z,99570.34
2023-06-10T05:35:10.679Z,99566.44
2023-06-10T05:36:13.675Z,99569.61
2023-06-10T05:37:16.077Z,99566.68
2023-06-10T05:38:18.578Z,99567.37
2023-06-10T05:39:22.147Z,99566.07
2023-06-10T05:40:24.740Z,99570.31
2023-06-10T05:41:27.004Z,99570.44
2023-06-10T05:42:29.311Z,99568.06
2023-06-10T05:43:32.187Z,99575.41
2023-06-10T05:44:34.819Z,99571.83
2023-06-10T05:45:38.113Z,99568.36
2023-06-10T05:46:40.637Z,99573.21
2023-06-10T05:47:43.047Z,99578.19
2023-06-10T05:48:45.459Z,99577.21
2023-06-10T05:49:49.655Z,99572.59
2023-06-10T05:50:53.258Z,99577.58
2023-06-10T05:51:57.973Z,99571.98
2023-06-10T05:53:00.960Z,99573.56
2023-06-10T05:54:03.589Z,99572.48
2023-06-10T05:55:07.564Z,99573.38
2023-06-10T05:56:11.337Z,99577.69
2023-06-10T05:57:13.780Z,99577.69
2023-06-10T05:58:16.091Z,99567.37
2023-06-10T05:59:18.988Z,99572.91
2023-06-10T06:00:21.877Z,99572.46
2023-06-10T06:01:24.992Z,99568.13
2023-06-10T06:02:27.638Z,99570.84
2023-06-10T06:03:30.315Z,99568.52
2023-06-10T06:04:33.224Z,99568.52
2023-06-10T06:05:37.934Z,99570.20
2023-06-10T06:06:41.236Z,99571.92
2023-06-10T06:07:44.985Z,99567.64
2023-06-10T06:08:47.906Z,99575.65
2023-06-10T06:09:51.198Z,99572.00
2023-06-10T06:10:53.541Z,99575.27
2023-06-10T06:11:56.870Z,99575.27
2023-06-10T06:12:59.505Z,99571.92
2023-06-10T06:14:02.081Z,99567.64
2023-06-10T06:15:05.126Z,99574.16
2023-06-10T06:16:09.939Z,99572.93
2023-06-10T06:17:13.690Z,99576.09
2023-06-10T06:18:16.419Z,99576.30
2023-06-10T06:19:18.866Z,99552.35
2023-06-10T06:20:21.794Z,99552.35
2023-06-10T06:21:24.336Z,99574.17
2023-06-10T06:22:26.691Z,99572.52
2023-06-10T06:23:28.929Z,99570.20
2023-06-10T06:24:32.019Z,99570.02
2023-06-10T06:25:36.114Z,99580.30
2023-06-10T06:26:38.727Z,99579.82
2023-06-10T06:27:41.592Z,99581.63
2023-06-10T06:28:44.211Z,99576.17
2023-06-10T06:29:48.394Z,99584.97
2023-06-10T06:30:51.324Z,99579.48
2023-06-10T06:31:53.696Z,99583.45
2023-06-10T06:32:56.702Z,99577.62
2023-06-10T06:33:59.156Z,99578.47
2023-06-10T06:35:02.722Z,99577.97
2023-06-10T06:36:05.679Z,99577.80
2023-06-10T06:37:08.571Z,99578.47
2023-06-10T06:38:11.684Z,99586.78
2023-06-10T06:39:14.649Z,99581.13
2023-06-10T06:40:18.545Z,99573.81
2023-06-10T06:41:22.373Z,99573.81
2023-06-10T06:42:24.634Z,99582.94
2023-06-10T06:43:29.205Z,99585.26
2023-06-10T06:44:36.675Z,99580.08
2023-06-10T06:45:39.156Z,99577.09
2023-06-10T06:46:41.687Z,99586.73
2023-06-10T06:47:46.270Z,99576.44
2023-06-10T06:48:49.330Z,99581.55
2023-06-10T06:49:52.152Z,99582.50
2023-06-10T06:50:57.689Z,99581.98
2023-06-10T06:52:01.237Z,99584.85
2023-06-10T06:53:05.780Z,99565.81
2023-06-10T06:54:08.274Z,99565.81
2023-06-10T06:55:10.811Z,99582.14
2023-06-10T06:56:14.191Z,99579.65
2023-06-10T06:57:16.571Z,99579.67
2023-06-10T06:58:18.880Z,99580.51
2023-06-10T06:59:21.432Z,99579.83
2023-06-10T07:00:24.345Z,99583.84
2023-06-10T07:01:27.561Z,99579.69
2023-06-10T07:02:30.077Z,99586.00
2023-06-10T07:03:32.662Z,99581.02
2023-06-10T07:04:35.574Z,99575.56
2023-06-10T07:05:39.835Z,99583.18
2023-06-10T07:06:42.755Z,99577.83
2023-06-10T07:07:45.128Z,99577.67
2023-06-10T07:08:49.348Z,99572.38
2023-06-10T07:09:51.983Z,99578.84
2023-06-10T07:10:55.851Z,99580.33
2023-06-10T07:11:59.284Z,99577.19
2023-06-10T07:13:01.852Z,99584.29
2023-06-10T07:14:04.328Z,99577.48
2023-06-10T07:15:08.432Z,99574.17
2023-06-10T07:16:12.789Z,99582.40
2023-06-10T07:17:15.344Z,99581.55
2023-06-10T07:18:18.922Z,99582.03
2023-06-10T07:19:21.287Z,99572.19
2023-06-10T07:20:23.763Z,99578.01
2023-06-10T07:21:26.355Z,99581.72
2023-06-10T07:22:28.560Z,99582.40
2023-06-10T07:23:30.816Z,99587.71
2023-06-10T07:24:33.157Z,99578.11
2023-06-10T07:25:35.571Z,99584.38
2023-06-10T07:26:38.082Z,99583.05
2023-06-10T07:27:40.428Z,99582.27
2023-06-10T07:28:42.728Z,99584.27
2023-06-10T07:29:45.444Z,99582.13
2023-06-10T07:30:48.157Z,99574.17
2023-06-10T07:31:50.631Z,99572.86
2023-06-10T07:32:53.363Z,99573.87
2023-06-10T07:33:56.273Z,99577.17
2023-06-10T07:34:59.354Z,99575.86
2023-06-10T07:36:02.635Z,99579.18
2023-06-10T07:37:05.775Z,99574.23
2023-06-10T07:38:10.217Z,99572.57
2023-06-10T07:39:12.707Z,99571.75
2023-06-10T07:40:15.351Z,99576.22
2023-06-10T07:41:19.166Z,99577.89
2023-06-10T07:42:21.740Z,99574.23
2023-06-10T07:43:25.824Z,99576.53
2023-06-10T07:44:28.682Z,99583.52
2023-06-10T07:45:31.202Z,99574.50
2023-06-10T07:46:35.765Z,99572.38
2023-06-10T07:47:38.350Z,99570.72
2023-06-10T07:48:41.050Z,99575.17
2023-06-10T07:49:43.893Z,99575.17
2023-06-10T07:50:46.978Z,99575.52
2023-06-10T07:51:50.626Z,99578.68
2023-06-10T07:52:53.517Z,99579.50
2023-06-10T07:53:56.728Z,99575.01
2023-06-10T07:54:58.965Z,99583.80
2023-06-10T07:56:01.852Z,99575.95
2023-06-10T07:57:05.672Z,99577.04
2023-06-10T07:58:08.665Z,99578.04
2023-06-10T07:59:12.548Z,99571.34
2023-06-10T08:00:16.321Z,99569.16
2023-06-10T08:01:19.226Z,99571.64
2023-06-10T08:02:25.497Z,99568.74
2023-06-10T08:03:28.874Z,99565.82
2023-06-10T08:04:31.681Z,99565.98
2023-06-10T08:05:34.880Z,99563.62
2023-06-10T08:06:37.386Z,99562.95
2023-06-10T08:07:43.202Z,99568.41
2023-06-10T08:08:46.376Z,99559.75
2023-06-10T08:09:50.465Z,99558.08
2023-06-10T08:10:54.638Z,99565.90
2023-06-10T08:11:58.081Z,99565.08
2023-06-10T08:13:00.728Z,99563.41
2023-06-10T08:14:04.265Z,99563.08
2023-06-10T08:15:08.068Z,99565.77
2023-06-10T08:16:11.756Z,99566.80
2023-06-10T08:17:14.382Z,99558.31
2023-06-10T08:18:18.858Z,99561.69
2023-06-10T08:19:21.353Z,99559.87
2023-06-10T08:20:24.438Z,99567.18
2023-06-10T08:21:29.043Z,99567.81
2023-06-10T08:22:32.713Z,99572.50
2023-06-10T08:23:35.508Z,99564.88
2023-06-10T08:24:38.326Z,99567.36
2023-06-10T08:25:41.287Z,99570.04
2023-06-10T08:26:44.176Z,99570.53
2023-06-10T08:27:46.623Z,99574.50
2023-06-10T08:28:50.116Z,99567.00
2023-06-10T08:29:52.562Z,99566.19
2023-06-10T08:32:28.160Z,99578.12
2023-06-10T08:33:30.654Z,99571.51
2023-06-10T08:34:36.503Z,99570.66
2023-06-10T08:35:39.928Z,99562.48
2023-06-10T08:36:46.105Z,99581.67
2023-06-10T08:37:50.075Z,99566.51
2023-06-10T08:38:53.016Z,99579.01
2023-06-10T08:39:55.321Z,99581.49
2023-06-10T08:41:01.311Z,99570.84
2023-06-10T08:42:25.637Z,99573.30
2023-06-10T08:43:40.279Z,99563.47
2023-06-10T08:44:44.287Z,99575.45
2023-06-10T08:45:49.444Z,99571.31
2023-06-10T08:46:56.424Z,99578.42
2023-06-10T08:47:59.791Z,99567.26
2023-06-10T08:49:05.842Z,99565.41
2023-06-10T08:50:12.595Z,99558.39
2023-06-10T08:51:18.491Z,99571.98
2023-06-10T08:52:21.532Z,99563.13
2023-06-10T08:53:25.904Z,99563.28
2023-06-10T08:54:32.999Z,99562.28
2023-06-10T08:55:42.246Z,99564.94
2023-06-10T08:56:47.875Z,99561.09
2023-06-10T08:57:50.625Z,99570.27
2023-06-10T08:58:55.092Z,99576.31
2023-06-10T08:59:58.924Z,99570.98
2023-06-10T09:01:02.485Z,99568.59
2023-06-10T09:02:06.352Z,99565.16
2023-06-10T09:03:10.304Z,99576.18
2023-06-10T09:04:14.684Z,99565.37
2023-06-10T09:05:17.262Z,99570.52
2023-06-10T09:06:20.642Z,99566.55
2023-06-10T09:07:26.911Z,99566.87
2023-06-10T09:08:31.054Z,99572.38
2023-06-10T09:09:35.475Z,99569.05
2023-06-10T09:10:38.511Z,99574.05
2023-06-10T09:11:43.029Z,99576.22
2023-06-10T09:12:46.953Z,99574.91
2023-06-10T09:13:49.332Z,99582.22
2023-06-10T09:14:53.667Z,99581.22
2023-06-10T09:15:57.978Z,99577.56
2023-06-10T09:17:01.382Z,99580.05
2023-06-10T09:18:05.566Z,99585.19
2023-06-10T09:19:10.736Z,99580.50
2023-06-10T09:20:14.639Z,99573.83
2023-06-10T09:21:17.396Z,99568.17
2023-06-10T09:22:20.441Z,99565.13
2023-06-10T09:23:23.449Z,99570.12
2023-06-10T09:24:27.227Z,99567.26
2023-06-10T09:25:38.531Z,99566.86
2023-06-10T09:26:42.112Z,99577.19
2023-06-10T09:27:50.794Z,99567.98
2023-06-10T09:28:57.294Z,99571.77
2023-06-10T09:29:59.655Z,99563.47
2023-06-10T09:31:08.588Z,99565.13
2023-06-10T09:32:11.194Z,99566.66
2023-06-10T09:33:16.855Z,99570.28
2023-06-10T09:34:19.179Z,99566.80
2023-06-10T09:35:22.098Z,99568.46
2023-06-10T09:36:24.619Z,99564.98
2023-06-10T09:37:27.432Z,99567.66
2023-06-10T09:38:34.344Z,99568.02
2023-06-10T09:39:37.804Z,99564.38
2023-06-10T09:40:54.221Z,99577.41
2023-06-10T09:41:56.585Z,99570.41
2023-06-10T09:43:00.781Z,99566.37
2023-06-10T09:44:09.334Z,99568.08
2023-06-10T09:45:11.218Z,99569.77
2023-06-10T09:46:19.544Z,99567.81
2023-06-10T09:47:25.076Z,99559.83
2023-06-10T09:48:27.453Z,99563.86
2023-06-10T09:49:30.131Z,99568.86
2023-06-10T09:50:35.567Z,99568.36
2023-06-10T09:51:38.762Z,99567.05
2023-06-10T09:52:41.537Z,99562.55
2023-06-10T09:53:45.849Z,99561.55
2023-06-10T09:54:48.317Z,99560.20
2023-06-10T09:55:53.004Z,99559.20
2023-06-10T09:56:57.646Z,99549.23
2023-06-10T09:58:00.280Z,99554.23
2023-06-10T09:59:03.905Z,99554.06
2023-06-10T10:00:08.834Z,99558.22
2023-06-10T10:01:17.905Z,99558.58
2023-06-10T10:02:20.905Z,99547.61
2023-06-10T10:03:25.163Z,99554.93
2023-06-10T10:04:29.011Z,99555.60
2023-06-10T10:05:31.586Z,99547.27
2023-06-10T10:06:35.903Z,99550.95
2023-06-10T10:07:38.070Z,99546.95
2023-06-10T10:08:40.357Z,99553.62
2023-06-10T10:09:44.079Z,99550.28
2023-06-10T10:10:46.800Z,99553.97
2023-06-10T10:11:50.328Z,99550.81
2023-06-10T10:12:59.748Z,99555.46
2023-06-10T10:14:04.535Z,99550.64
2023-06-10T10:15:09.201Z,99552.30
2023-06-10T10:16:21.424Z,99550.96
2023-06-10T10:17:26.321Z,99539.00
2023-06-10T10:18:31.914Z,99541.17
2023-06-10T10:19:38.406Z,99541.98
2023-06-10T10:20:50.748Z,99537.66
2023-06-10T10:22:03.741Z,99548.30
2023-06-10T10:23:10.081Z,99545.14
2023-06-10T10:24:24.313Z,99548.80
2023-06-10T10:25:40.339Z,99546.94
2023-06-10T10:26:45.307Z,99549.77
2023-06-10T10:28:00.631Z,99549.09
2023-06-10T10:29:18.901Z,99543.95
2023-06-10T10:30:22.737Z,99542.28
2023-06-10T10:31:27.990Z,99545.94
2023-06-10T10:32:43.972Z,99532.33
2023-06-10T10:34:01.412Z,99547.94
2023-06-10T10:35:13.491Z,99536.98
2023-06-10T10:36:16.625Z,99531.30
2023-06-10T10:37:21.774Z,99533.33
2023-06-10T10:38:26.129Z,99539.67
2023-06-10T10:39:29.450Z,99536.34
2023-06-10T10:40:34.243Z,99535.35
2023-06-10T10:41:39.457Z,99535.67
2023-06-10T10:42:45.238Z,99531.34
2023-06-10T10:43:52.039Z,99529.67
2023-06-10T10:44:55.570Z,99528.02
2023-06-10T10:46:04.038Z,99534.00
2023-06-10T10:47:09.564Z,99525.66
2023-06-10T10:48:18.601Z,99524.98
2023-06-10T10:49:24.121Z,99526.47
2023-06-10T10:50:31.066Z,99526.81
2023-06-10T10:51:36.047Z,99516.66
2023-06-10T10:52:56.703Z,99517.59
2023-06-10T10:54:15.594Z,99523.57
2023-06-10T10:55:18.222Z,99520.30
2023-06-10T10:56:21.786Z,99526.11
2023-06-10T10:57:26.916Z,99513.94
2023-06-10T10:58:29.396Z,99512.39
2023-06-10T11:00:00.018Z,99521.37
2023-06-10T11:01:15.060Z,99517.38
2023-06-10T11:02:19.629Z,99518.45
2023-06-10T11:03:22.816Z,99514.58
2023-06-10T11:04:27.293Z,99511.16
2023-06-10T11:05:42.342Z,99517.66
2023-06-10T11:06:56.104Z,99510.13
2023-06-10T11:07:58.888Z,99511.59
2023-06-10T11:09:24.351Z,99515.50
2023-06-10T11:10:33.501Z,99509.16
2023-06-10T11:11:39.452Z,99501.59
2023-06-10T11:12:52.733Z,99510.52
2023-06-10T11:14:09.250Z,99503.09
2023-06-10T11:15:16.581Z,99500.21
2023-06-10T11:16:20.973Z,99496.11
2023-06-10T11:17:24.126Z,99500.32
2023-06-10T11:18:28.049Z,99503.28
2023-06-10T11:19:40.316Z,99495.43
2023-06-10T11:20:58.130Z,99492.59
2023-06-10T11:22:03.928Z,99494.22
2023-06-10T11:23:07.428Z,99498.30
2023-06-10T11:24:15.767Z,99485.45
2023-06-10T11:25:21.909Z,99481.02
2023-06-10T11:26:31.144Z,99482.57
2023-06-10T11:27:41.509Z,99483.33
2023-06-10T11:28:50.510Z,99483.33
2023-06-10T11:30:06.268Z,99474.05
2023-06-10T11:31:11.781Z,99474.30
2023-06-10T11:32:15.336Z,99484.94
2023-06-10T11:33:18.263Z,99470.92
2023-06-10T11:34:25.484Z,99481.50
2023-06-10T11:35:28.477Z,99480.48
2023-06-10T11:36:37.711Z,99478.63
2023-06-10T11:37:40.158Z,99473.91
2023-06-10T11:38:45.272Z,99474.33
2023-06-10T11:39:48.176Z,99472.58
2023-06-10T11:40:51.447Z,99479.69
2023-06-10T11:41:54.276Z,99484.73
2023-06-10T11:42:57.948Z,99479.39
2023-06-10T11:44:07.058Z,99478.66
2023-06-10T11:45:11.276Z,99489.36
2023-06-10T11:46:15.892Z,99491.91
2023-06-10T11:47:19.753Z,99502.98
2023-06-10T11:48:22.179Z,99492.38
2023-06-10T11:49:26.518Z,99479.27
2023-06-10T11:50:33.749Z,99490.24
2023-06-10T11:51:41.605Z,99491.19
2023-06-10T11:52:46.043Z,99495.70
2023-06-10T11:53:49.370Z,99501.59
2023-06-10T11:54:58.273Z,99490.53
2023-06-10T11:56:01.426Z,99488.96
2023-06-10T11:57:04.309Z,99487.73
2023-06-10T11:58:16.350Z,99490.19
2023-06-10T11:59:19.001Z,99491.41
2023-06-10T12:00:23.007Z,99491.05
2023-06-10T12:01:29.660Z,99480.29
2023-06-10T12:02:33.433Z,99483.66
2023-06-10T12:03:39.492Z,99482.45
2023-06-10T12:04:42.469Z,99480.73
2023-06-10T12:05:59.281Z,99472.81
2023-06-10T12:07:01.821Z,99472.70
2023-06-10T12:09:27.869Z,99462.61
2023-06-10T12:10:30.223Z,99461.73
2023-06-10T12:11:33.063Z,99465.70
2023-06-10T12:12:38.453Z,99471.94
2023-06-10T12:13:52.797Z,99464.48
2023-06-10T12:14:58.499Z,99461.40
2023-06-10T12:16:09.833Z,99465.13
2023-06-10T12:17:13.264Z,99465.50
2023-06-10T12:18:23.843Z,99452.91
2023-06-10T12:19:27.705Z,99456.79
2023-06-10T12:20:35.593Z,99457.81
2023-06-10T12:21:41.545Z,99461.02
2023-06-10T12:22:46.289Z,99463.14
2023-06-10T12:24:11.774Z,99462.76
2023-06-10T12:25:15.075Z,99458.77
2023-06-10T12:26:17.850Z,99441.62
2023-06-10T12:27:21.012Z,99441.62
2023-06-10T12:28:25.094Z,99454.08
2023-06-10T12:29:30.115Z,99452.30
2023-06-10T12:30:33.423Z,99446.63
2023-06-10T12:31:39.439Z,99444.98
2023-06-10T12:32:47.027Z,99448.41
2023-06-10T12:33:51.083Z,99447.66
2023-06-10T12:35:05.754Z,99447.09
2023-06-10T12:36:11.877Z,99449.37
2023-06-10T12:37:14.278Z,99446.56
2023-06-10T12:38:30.702Z,99447.03
2023-06-10T12:39:35.004Z,99456.30